Time;durP1;ratioP1;P1;durP2;ratioP2;P2;SDS_P1;SDS_P2;PMS_P1;PMS_P2;Temp;Humidity;BMP_temperature;BMP_pressure;BME280_temperature;BME280_humidity;BME280_pressure;Samples;Min_cycle;Max_cycle;Signal;HPM_P1;HPM_P2
2022/12/03 00:00:42;;;;;;;33.10;17.60;;;2.70;96.50;;;;;;5093686;28;20583;-69
2022/12/03 00:03:11;;;;;;;29.73;17.00;;;2.80;96.90;;;;;;5093866;28;20207;-67
2022/12/03 00:05:41;;;;;;;31.27;18.23;;;2.80;96.40;;;;;;5093642;28;20230;-66
2022/12/03 00:08:16;;;;;;;34.13;17.43;;;2.80;96.00;;;;;;5092840;28;20201;-66
2022/12/03 00:10:44;;;;;;;33.63;17.80;;;2.80;96.10;;;;;;5093541;28;20204;-66
2022/12/03 00:13:12;;;;;;;29.93;17.10;;;2.80;96.50;;;;;;5093393;28;20266;-67
2022/12/03 00:15:41;;;;;;;33.73;17.17;;;2.80;96.10;;;;;;5093441;28;20216;-67
2022/12/03 00:18:09;;;;;;;31.67;16.93;;;2.90;96.00;;;;;;5093445;28;20204;-67
2022/12/03 00:20:37;;;;;;;31.37;16.90;;;2.90;95.30;;;;;;5075329;28;20212;-67
2022/12/03 00:23:07;;;;;;;33.33;17.97;;;2.80;95.60;;;;;;5093235;28;20206;-66
2022/12/03 00:25:35;;;;;;;34.63;17.83;;;2.80;95.00;;;;;;5093339;28;20195;-66
2022/12/03 00:28:04;;;;;;;32.83;17.50;;;2.70;95.30;;;;;;5093373;28;20293;-67
2022/12/03 00:30:32;;;;;;;36.70;18.80;;;2.60;95.80;;;;;;5093182;28;20666;-66
2022/12/03 00:33:01;;;;;;;32.80;18.73;;;2.60;96.40;;;;;;5093108;28;20189;-66
2022/12/03 00:35:29;;;;;;;30.93;18.40;;;2.70;96.10;;;;;;5093138;28;20599;-66
2022/12/03 00:37:57;;;;;;;32.97;19.10;;;2.80;96.80;;;;;;5092915;28;20197;-67
2022/12/03 00:40:27;;;;;;;30.37;18.77;;;2.80;96.20;;;;;;5093287;28;20202;-66
2022/12/03 00:42:56;;;;;;;32.00;19.17;;;2.80;96.60;;;;;;5093082;28;20196;-68
2022/12/03 00:45:24;;;;;;;37.20;18.60;;;2.80;96.00;;;;;;5092953;28;20205;-70
2022/12/03 00:47:52;;;;;;;31.73;17.13;;;2.80;95.80;;;;;;5092937;28;20276;-68
2022/12/03 00:50:20;;;;;;;31.63;17.60;;;2.70;95.70;;;;;;5092991;28;20212;-67
2022/12/03 00:52:49;;;;;;;34.43;19.53;;;2.60;96.00;;;;;;5092748;28;20824;-68
2022/12/03 00:55:18;;;;;;;37.63;20.97;;;2.60;96.40;;;;;;5092642;28;20221;-68
2022/12/03 00:57:47;;;;;;;36.47;19.90;;;2.60;96.10;;;;;;5074516;28;20219;-68
2022/12/03 01:00:16;;;;;;;35.43;20.30;;;2.60;96.60;;;;;;5092599;28;20210;-69
2022/12/03 01:02:44;;;;;;;37.73;19.73;;;2.70;96.90;;;;;;5092488;28;20188;-69
2022/12/03 01:05:13;;;;;;;39.07;21.17;;;2.70;96.10;;;;;;5092280;28;20193;-69
2022/12/03 01:07:41;;;;;;;37.60;20.80;;;2.80;96.10;;;;;;5091706;28;20254;-70
2022/12/03 01:10:11;;;;;;;36.20;20.93;;;2.80;95.80;;;;;;5092685;28;20216;-68
2022/12/03 01:12:39;;;;;;;36.87;21.03;;;2.80;95.40;;;;;;5074245;28;20200;-71
2022/12/03 01:15:10;;;;;;;36.50;20.30;;;2.80;95.90;;;;;;5092237;28;20251;-71
2022/12/03 01:17:38;;;;;;;49.43;23.83;;;2.80;94.80;;;;;;5092336;28;20213;-70
2022/12/03 01:20:08;;;;;;;36.87;20.10;;;2.80;95.80;;;;;;5092167;28;20242;-70
2022/12/03 01:22:37;;;;;;;41.97;22.07;;;2.70;95.00;;;;;;5092120;28;20206;-69
2022/12/03 01:25:06;;;;;;;41.80;21.00;;;2.70;94.80;;;;;;5092021;28;20618;-68
2022/12/03 01:27:34;;;;;;;34.77;21.27;;;2.60;95.10;;;;;;5092055;28;20674;-70
2022/12/03 01:30:06;;;;;;;39.77;22.00;;;2.70;95.50;;;;;;5092159;28;20197;-66
2022/12/03 01:32:35;;;;;;;37.93;21.10;;;2.60;95.60;;;;;;5092015;28;20203;-71
2022/12/03 01:35:04;;;;;;;40.03;22.87;;;2.60;96.00;;;;;;5091962;28;20220;-71
2022/12/03 01:37:33;;;;;;;38.07;20.83;;;2.60;95.70;;;;;;5091769;28;20732;-70
2022/12/03 01:40:02;;;;;;;42.57;23.13;;;2.60;95.60;;;;;;5092072;28;20210;-70
2022/12/03 01:42:33;;;;;;;42.63;21.50;;;2.60;95.90;;;;;;5091946;28;20669;-72
2022/12/03 01:45:02;;;;;;;42.73;21.80;;;2.50;95.50;;;;;;5091860;28;20203;-70
2022/12/03 01:47:33;;;;;;;43.57;22.30;;;2.30;95.60;;;;;;5091871;28;20686;-71
2022/12/03 01:50:07;;;;;;;38.90;23.37;;;2.30;96.30;;;;;;5091663;28;20670;-71
2022/12/03 01:52:38;;;;;;;44.37;23.10;;;2.20;96.80;;;;;;5091804;28;20197;-69
2022/12/03 01:55:14;;;;;;;43.30;23.30;;;2.10;97.00;;;;;;5091667;28;20270;-67
2022/12/03 01:57:45;;;;;;;39.57;23.53;;;2.10;97.50;;;;;;5091657;28;20204;-67
2022/12/03 02:00:16;;;;;;;37.00;21.00;;;2.10;97.80;;;;;;5091746;28;20271;-66
2022/12/03 02:02:46;;;;;;;38.57;20.60;;;2.10;97.50;;;;;;5091774;28;20696;-66
2022/12/03 02:05:18;;;;;;;36.27;20.77;;;2.00;97.40;;;;;;5091570;28;20200;-66
2022/12/03 02:07:47;;;;;;;35.10;20.83;;;1.80;98.20;;;;;;5091328;28;20232;-66
2022/12/03 02:10:18;;;;;;;41.77;20.60;;;1.80;99.10;;;;;;5091521;28;20206;-65
2022/12/03 02:12:51;;;;;;;35.10;20.13;;;2.00;99.10;;;;;;5091574;28;20334;-67
2022/12/03 02:15:20;;;;;;;41.43;20.80;;;2.10;98.60;;;;;;5091487;28;20239;-66
2022/12/03 02:17:48;;;;;;;37.90;21.53;;;2.10;97.90;;;;;;5091523;28;20211;-66
2022/12/03 02:20:19;;;;;;;33.27;20.53;;;2.20;97.30;;;;;;5095193;28;20195;-66
2022/12/03 02:22:55;;;;;;;39.10;21.80;;;2.10;97.30;;;;;;5095606;28;20196;-67
2022/12/03 02:25:27;;;;;;;34.13;19.47;;;2.20;97.50;;;;;;5096028;28;20192;-66
2022/12/03 02:27:56;;;;;;;37.57;19.83;;;2.20;97.00;;;;;;5095763;28;20209;-66
2022/12/03 02:30:26;;;;;;;38.23;20.03;;;2.10;97.00;;;;;;5095592;28;20192;-67
2022/12/03 02:32:55;;;;;;;28.27;18.17;;;2.10;97.10;;;;;;5095569;28;20205;-68
2022/12/03 02:35:26;;;;;;;33.87;18.40;;;2.10;96.30;;;;;;5095482;28;20686;-67
2022/12/03 02:37:59;;;;;;;38.83;19.43;;;2.00;96.90;;;;;;5095256;28;20792;-66
2022/12/03 02:40:32;;;;;;;30.07;19.00;;;1.90;97.40;;;;;;5095703;28;20196;-68
2022/12/03 02:43:02;;;;;;;31.43;18.73;;;2.00;98.00;;;;;;5095294;28;20196;-66
2022/12/03 02:45:33;;;;;;;37.23;19.10;;;2.00;97.20;;;;;;5095373;28;20196;-68
2022/12/03 02:48:04;;;;;;;29.20;17.77;;;2.00;97.70;;;;;;5095188;28;20208;-67
2022/12/03 02:50:35;;;;;;;27.80;17.03;;;2.10;97.70;;;;;;5095354;28;20328;-66
2022/12/03 02:53:07;;;;;;;30.53;16.97;;;2.00;96.80;;;;;;5095050;28;20601;-67
2022/12/03 02:55:37;;;;;;;32.33;18.20;;;2.00;97.30;;;;;;5095107;28;20241;-66
2022/12/03 02:58:06;;;;;;;31.90;18.53;;;2.00;97.60;;;;;;5095047;28;20253;-66
2022/12/03 03:00:37;;;;;;;31.57;17.83;;;2.10;97.70;;;;;;5094935;28;20246;-66
2022/12/03 03:03:07;;;;;;;32.27;18.17;;;2.10;97.80;;;;;;5094822;28;20299;-67
2022/12/03 03:05:37;;;;;;;30.23;19.17;;;2.20;97.80;;;;;;5094902;28;20202;-66
2022/12/03 03:08:08;;;;;;;33.10;19.27;;;2.30;97.60;;;;;;5094773;28;20194;-67
2022/12/03 03:10:39;;;;;;;29.40;17.20;;;2.40;97.20;;;;;;5094867;28;20184;-66
2022/12/03 03:13:10;;;;;;;34.93;20.07;;;2.30;96.40;;;;;;5076562;28;20197;-68
2022/12/03 03:15:39;;;;;;;33.83;19.47;;;2.30;97.00;;;;;;5094649;28;20225;-66
2022/12/03 03:18:09;;;;;;;33.20;20.53;;;2.40;97.40;;;;;;5094667;28;20193;-66
2022/12/03 03:20:38;;;;;;;33.70;17.70;;;2.40;97.00;;;;;;5094711;28;20629;-66
2022/12/03 03:23:13;;;;;;;34.23;19.37;;;2.50;96.80;;;;;;5094447;28;20245;-67
2022/12/03 03:25:45;;;;;;;37.13;20.60;;;2.50;96.10;;;;;;5094474;28;20610;-66
2022/12/03 03:28:15;;;;;;;32.00;17.90;;;2.50;96.80;;;;;;5094482;28;20283;-67
2022/12/03 03:30:44;;;;;;;31.27;18.13;;;2.40;96.80;;;;;;5093940;28;20200;-67
2022/12/03 03:33:14;;;;;;;34.30;17.87;;;2.40;97.30;;;;;;5094353;28;20565;-66
2022/12/03 03:35:45;;;;;;;31.23;18.40;;;2.40;97.80;;;;;;5094426;28;20228;-68
2022/12/03 03:38:14;;;;;;;32.17;18.17;;;2.40;97.50;;;;;;5094202;28;20216;-67
2022/12/03 03:40:44;;;;;;;36.43;19.00;;;2.40;97.90;;;;;;5094198;28;20226;-67
2022/12/03 03:43:13;;;;;;;27.47;17.23;;;2.50;98.00;;;;;;5094432;28;20197;-66
2022/12/03 03:45:42;;;;;;;29.70;16.20;;;2.50;98.00;;;;;;5094283;28;20197;-66
2022/12/03 03:48:12;;;;;;;30.50;16.47;;;2.50;98.00;;;;;;5094318;28;20618;-67
2022/12/03 03:50:41;;;;;;;29.17;15.83;;;2.50;97.70;;;;;;5094017;28;20196;-67
2022/12/03 03:53:11;;;;;;;25.03;14.53;;;2.50;97.60;;;;;;5094015;28;20202;-67
2022/12/03 03:55:40;;;;;;;25.70;15.43;;;2.50;96.70;;;;;;5094044;28;20223;-68
2022/12/03 03:58:09;;;;;;;22.67;13.73;;;2.40;97.20;;;;;;5093856;28;20310;-67
2022/12/03 04:00:39;;;;;;;32.03;16.00;;;2.40;97.20;;;;;;5093963;28;20203;-66
2022/12/03 04:03:07;;;;;;;27.00;14.83;;;2.30;97.40;;;;;;5093750;28;20196;-67
2022/12/03 04:05:35;;;;;;;25.37;15.73;;;2.20;97.40;;;;;;5093622;28;20300;-67
2022/12/03 04:08:04;;;;;;;30.30;15.63;;;2.10;98.40;;;;;;5093729;28;20192;-66
2022/12/03 04:13:20;;;;;;;26.70;15.67;;;2.30;98.70;;;;;;5093648;28;20189;-67
2022/12/03 04:15:48;;;;;;;32.37;18.23;;;2.40;98.10;;;;;;5093565;28;20609;-66
2022/12/03 04:23:47;;;;;;;28.33;16.47;;;2.30;96.40;;;;;;5070976;28;20211;-67
2022/12/03 04:29:03;;;;;;;29.47;15.47;;;2.20;97.30;;;;;;5070976;28;20219;-67
2022/12/03 04:37:04;;;;;;;30.17;15.03;;;2.20;96.80;;;;;;5070501;28;20677;-67
2022/12/03 04:39:32;;;;;;;34.33;16.53;;;2.20;96.50;;;;;;5070615;28;20204;-67
2022/12/03 04:42:00;;;;;;;31.60;16.10;;;2.20;96.00;;;;;;5069632;28;20690;-67
2022/12/03 04:44:34;;;;;;;36.37;17.63;;;2.10;96.20;;;;;;5070570;28;20203;-66
2022/12/03 04:47:06;;;;;;;35.07;15.93;;;2.20;96.80;;;;;;5070486;28;20197;-65
2022/12/03 04:49:35;;;;;;;31.03;16.63;;;2.10;96.20;;;;;;5070369;28;20666;-66
2022/12/03 04:52:04;;;;;;;33.53;16.53;;;2.20;95.90;;;;;;5070265;28;20701;-66
2022/12/03 04:54:32;;;;;;;41.57;19.23;;;2.10;95.40;;;;;;5070243;28;20206;-67
2022/12/03 04:57:01;;;;;;;34.97;17.87;;;2.10;95.70;;;;;;5070320;28;20221;-66
2022/12/03 04:59:31;;;;;;;34.03;18.23;;;2.10;95.30;;;;;;5070390;28;20193;-68
2022/12/03 05:01:59;;;;;;;34.00;18.07;;;2.00;95.60;;;;;;5089953;28;20354;-67
2022/12/03 05:04:28;;;;;;;36.13;18.50;;;2.10;95.80;;;;;;5092837;28;20196;-66
2022/12/03 05:06:56;;;;;;;33.77;18.43;;;2.10;95.50;;;;;;5092479;28;20281;-67
2022/12/03 05:09:24;;;;;;;36.80;19.63;;;2.10;95.60;;;;;;5092672;28;20210;-67
2022/12/03 05:11:53;;;;;;;43.53;19.83;;;2.20;95.70;;;;;;5092574;28;20669;-68
2022/12/03 05:14:21;;;;;;;37.47;19.20;;;2.20;94.90;;;;;;5092648;28;20242;-67
2022/12/03 05:16:51;;;;;;;39.40;19.77;;;2.20;94.90;;;;;;5092508;28;20213;-69
2022/12/03 05:19:19;;;;;;;42.50;20.47;;;2.20;95.20;;;;;;5092293;28;20207;-67
2022/12/03 05:21:46;;;;;;;43.83;20.23;;;2.10;95.00;;;;;;5092581;28;20208;-67
2022/12/03 05:24:15;;;;;;;43.07;20.50;;;2.10;95.30;;;;;;5092279;28;20201;-68
2022/12/03 05:26:43;;;;;;;47.00;23.07;;;2.10;95.50;;;;;;5092445;28;20196;-68
2022/12/03 05:29:11;;;;;;;50.30;26.20;;;2.10;95.10;;;;;;5092364;28;20201;-67
2022/12/03 05:31:40;;;;;;;50.90;25.47;;;2.10;95.40;;;;;;5092184;28;20292;-67
2022/12/03 05:34:09;;;;;;;53.20;27.33;;;2.00;95.90;;;;;;5092133;28;20195;-68
2022/12/03 05:36:38;;;;;;;58.57;27.40;;;2.00;96.20;;;;;;5092149;28;20228;-69
2022/12/03 05:39:06;;;;;;;50.33;24.80;;;2.00;96.30;;;;;;5073934;28;20287;-67
2022/12/03 05:44:29;;;;;;;45.30;22.23;;;2.00;97.00;;;;;;5029807;28;20203;-68
2022/12/03 05:46:57;;;;;;;52.03;23.70;;;2.10;96.90;;;;;;5029761;28;20314;-67
2022/12/03 05:49:27;;;;;;;53.20;22.63;;;2.10;96.50;;;;;;5029750;28;20272;-67
2022/12/03 05:51:55;;;;;;;56.93;21.87;;;2.10;96.60;;;;;;5029575;28;20672;-67
2022/12/03 05:54:25;;;;;;;55.30;22.97;;;2.00;96.70;;;;;;5029346;28;20212;-67
2022/12/03 05:56:54;;;;;;;50.50;23.23;;;2.00;96.70;;;;;;5029411;28;20218;-67
2022/12/03 05:59:22;;;;;;;52.87;24.10;;;2.00;96.90;;;;;;5029444;28;20583;-68
2022/12/03 06:01:50;;;;;;;60.97;29.10;;;2.00;97.30;;;;;;5029547;28;20719;-67
2022/12/03 06:04:19;;;;;;;83.43;37.70;;;2.00;97.80;;;;;;5029440;28;20583;-67
2022/12/03 06:06:48;;;;;;;52.93;27.20;;;2.00;97.70;;;;;;5028996;28;20756;-67
2022/12/03 06:09:17;;;;;;;63.40;27.83;;;2.00;98.30;;;;;;5029244;28;20238;-68
2022/12/03 06:11:45;;;;;;;159.67;67.93;;;1.90;98.70;;;;;;5029333;28;20730;-67
2022/12/03 06:14:13;;;;;;;135.87;58.13;;;2.00;99.10;;;;;;5029236;28;20199;-67
2022/12/03 06:16:42;;;;;;;68.67;32.73;;;2.10;99.10;;;;;;5029352;28;20225;-67
2022/12/03 06:19:10;;;;;;;70.43;27.67;;;2.10;98.60;;;;;;5030707;28;20253;-67
2022/12/03 06:21:39;;;;;;;64.40;27.40;;;2.00;99.10;;;;;;5091578;28;20211;-68
2022/12/03 06:24:10;;;;;;;63.10;25.70;;;1.80;99.70;;;;;;5091525;28;20254;-68
2022/12/03 06:26:39;;;;;;;62.17;25.53;;;1.70;99.90;;;;;;5091433;28;20212;-67
2022/12/03 06:29:07;;;;;;;60.93;26.20;;;1.50;99.90;;;;;;5073420;28;20202;-67
2022/12/03 06:31:36;;;;;;;62.53;26.53;;;1.50;99.90;;;;;;5091433;28;20678;-68
2022/12/03 06:34:04;;;;;;;71.27;26.43;;;1.50;99.90;;;;;;5091418;28;20698;-68
2022/12/03 06:36:32;;;;;;;67.20;26.13;;;1.50;99.90;;;;;;5091604;28;20625;-68
2022/12/03 06:39:01;;;;;;;65.60;25.27;;;1.50;99.90;;;;;;5091550;28;20200;-72
2022/12/03 06:41:30;;;;;;;62.17;24.40;;;1.40;99.90;;;;;;5091391;28;20196;-70
2022/12/03 06:43:59;;;;;;;59.43;26.80;;;1.40;99.90;;;;;;5091683;28;20744;-70
2022/12/03 06:46:27;;;;;;;60.90;25.60;;;1.50;99.90;;;;;;5091555;28;20205;-68
2022/12/03 06:48:55;;;;;;;60.43;23.63;;;1.60;99.90;;;;;;5091329;28;20192;-68
2022/12/03 06:51:24;;;;;;;63.97;25.53;;;1.40;99.90;;;;;;5091337;28;20205;-69
2022/12/03 06:53:52;;;;;;;58.17;24.70;;;1.40;99.90;;;;;;5091228;28;20215;-67
2022/12/03 06:56:20;;;;;;;63.30;26.60;;;1.30;99.90;;;;;;5091156;28;20219;-68
2022/12/03 06:58:51;;;;;;;63.43;28.17;;;1.40;99.90;;;;;;5091296;28;20236;-68
2022/12/03 07:01:19;;;;;;;64.57;24.83;;;1.40;99.90;;;;;;5091319;28;20205;-68
2022/12/03 07:03:48;;;;;;;63.80;27.40;;;1.50;99.90;;;;;;5091250;28;20207;-67
2022/12/03 07:06:16;;;;;;;70.10;28.40;;;1.50;99.90;;;;;;5094236;28;20220;-69
2022/12/03 07:08:45;;;;;;;67.67;28.30;;;1.60;99.90;;;;;;5094857;28;20205;-68
2022/12/03 07:13:57;;;;;;;66.77;27.60;;;1.50;99.90;;;;;;5076224;28;20204;-68
2022/12/03 07:16:31;;;;;;;60.03;27.77;;;1.50;99.90;;;;;;5094876;28;20219;-68
2022/12/03 07:19:00;;;;;;;60.70;25.70;;;1.50;99.90;;;;;;5094886;28;20295;-67
2022/12/03 07:21:28;;;;;;;53.60;24.63;;;1.50;99.90;;;;;;5094828;28;20265;-67
2022/12/03 07:23:56;;;;;;;63.03;28.27;;;1.50;99.90;;;;;;5094525;28;20204;-68
2022/12/03 07:26:25;;;;;;;58.07;26.70;;;1.50;99.90;;;;;;5094313;28;20663;-67
2022/12/03 07:28:53;;;;;;;66.77;27.20;;;1.60;99.90;;;;;;5094575;28;20196;-67
2022/12/03 07:31:23;;;;;;;65.37;28.77;;;1.50;99.90;;;;;;5094413;28;20211;-68
2022/12/03 07:33:51;;;;;;;66.33;28.47;;;1.20;99.90;;;;;;5083282;28;20714;-67
2022/12/03 07:36:20;;;;;;;59.53;27.37;;;1.30;99.90;;;;;;5082372;28;20312;-68
2022/12/03 07:38:49;;;;;;;60.53;28.93;;;1.30;99.90;;;;;;5056056;28;20225;-66
2022/12/03 07:41:17;;;;;;;56.83;26.40;;;1.30;99.90;;;;;;5074363;28;20212;-68
2022/12/03 07:43:45;;;;;;;56.63;26.67;;;1.40;99.90;;;;;;5078459;28;20204;-66
2022/12/03 07:46:14;;;;;;;68.83;28.07;;;1.50;99.90;;;;;;5094038;28;20211;-66
2022/12/03 07:48:44;;;;;;;57.43;26.97;;;1.50;99.90;;;;;;5094012;28;20203;-68
2022/12/03 07:51:13;;;;;;;57.60;26.07;;;1.60;99.90;;;;;;5093969;28;20204;-67
2022/12/03 07:53:42;;;;;;;56.77;27.37;;;1.50;99.90;;;;;;5094049;28;20749;-69
2022/12/03 07:56:11;;;;;;;53.33;26.13;;;1.50;99.90;;;;;;5093005;28;20201;-66
2022/12/03 07:58:39;;;;;;;67.10;30.73;;;1.50;99.90;;;;;;5093791;28;20223;-69
2022/12/03 08:01:09;;;;;;;65.93;30.30;;;1.50;99.90;;;;;;5093463;28;20204;-68
2022/12/03 08:03:38;;;;;;;65.17;29.10;;;1.70;99.90;;;;;;5093935;28;20245;-68
2022/12/03 08:06:08;;;;;;;58.53;28.20;;;1.70;99.90;;;;;;5090159;28;20226;-66
2022/12/03 08:08:36;;;;;;;54.77;26.23;;;1.60;99.90;;;;;;5073503;28;20197;-67
2022/12/03 08:11:05;;;;;;;60.50;27.97;;;1.50;99.90;;;;;;5073012;28;20243;-66
2022/12/03 08:13:34;;;;;;;64.47;30.40;;;1.30;99.90;;;;;;5072990;28;20193;-66
2022/12/03 08:16:14;;;;;;;60.73;28.37;;;1.10;99.90;;;;;;5073404;28;20204;-66
2022/12/03 08:18:43;;;;;;;65.87;30.07;;;1.00;99.90;;;;;;5073107;28;20760;-66
2022/12/03 08:21:13;;;;;;;67.27;30.60;;;1.00;99.90;;;;;;5072636;28;20686;-67
2022/12/03 08:23:42;;;;;;;59.50;28.47;;;0.90;99.90;;;;;;5073172;28;20287;-67
2022/12/03 08:26:19;;;;;;;64.23;29.07;;;1.00;99.90;;;;;;5054437;28;20283;-67
2022/12/03 08:28:47;;;;;;;51.03;25.77;;;1.20;99.90;;;;;;5073335;28;20204;-66
